sensor_id;sensor_type;location;lat;lon;timestamp;pressure;altitude;pressure_sealevel;temperature;humidity
5780;BME280;2916;49.798;10.022;2023-05-03T00:00:42;146077.50;;;7.20;88.23
5780;BME280;2916;49.798;10.022;2023-05-03T00:03:09;146065.09;;;7.15;87.54
5780;BME280;2916;49.798;10.022;2023-05-03T00:05:39;146067.59;;;7.16;87.96
5780;BME280;2916;49.798;10.022;2023-05-03T00:08:06;146050.25;;;7.09;87.82
5780;BME280;2916;49.798;10.022;2023-05-03T00:10:33;146052.72;;;7.10;87.85
5780;BME280;2916;49.798;10.022;2023-05-03T00:13:01;146015.59;;;6.95;88.84
5780;BME280;2916;49.798;10.022;2023-05-03T00:15:28;145988.34;;;6.83;88.74
5780;BME280;2916;49.798;10.022;2023-05-03T00:17:55;146020.56;;;6.97;88.55
5780;BME280;2916;49.798;10.022;2023-05-03T00:20:22;145985.88;;;6.82;88.95
5780;BME280;2916;49.798;10.022;2023-05-03T00:22:51;145993.31;;;6.85;89.19
5780;BME280;2916;49.798;10.022;2023-05-03T00:25:19;145995.78;;;6.86;89.87
5780;BME280;2916;49.798;10.022;2023-05-03T00:27:46;145977.22;;;6.79;89.37
5780;BME280;2916;49.798;10.022;2023-05-03T00:30:13;145953.72;;;6.69;89.70
5780;BME280;2916;49.798;10.022;2023-05-03T00:32:40;145973.53;;;6.77;89.25
5780;BME280;2916;49.798;10.022;2023-05-03T00:35:08;145966.09;;;6.74;89.02
5780;BME280;2916;49.798;10.022;2023-05-03T00:37:36;145853.50;;;6.28;89.88
5780;BME280;2916;49.798;10.022;2023-05-03T00:40:06;145890.63;;;6.43;89.28
5780;BME280;2916;49.798;10.022;2023-05-03T00:42:35;145971.06;;;6.76;89.82
5780;BME280;2916;49.798;10.022;2023-05-03T00:45:03;145966.09;;;6.74;89.06
5780;BME280;2916;49.798;10.022;2023-05-03T00:47:31;145961.16;;;6.72;89.36
5780;BME280;2916;49.798;10.022;2023-05-03T00:49:59;145958.66;;;6.71;89.45
5780;BME280;2916;49.798;10.022;2023-05-03T00:52:27;145947.53;;;6.67;90.18
5780;BME280;2916;49.798;10.022;2023-05-03T00:54:56;145883.19;;;6.40;89.36
5780;BME280;2916;49.798;10.022;2023-05-03T00:57:26;145961.16;;;6.72;90.09
5780;BME280;2916;49.798;10.022;2023-05-03T00:59:55;145952.50;;;6.69;89.43
5780;BME280;2916;49.798;10.022;2023-05-03T01:02:23;145961.16;;;6.72;89.70
5780;BME280;2916;49.798;10.022;2023-05-03T01:04:51;145916.59;;;6.54;89.13
5780;BME280;2916;49.798;10.022;2023-05-03T01:07:31;145958.66;;;6.71;88.44
5780;BME280;2916;49.798;10.022;2023-05-03T01:10:17;145966.09;;;6.74;88.99
5780;BME280;2916;49.798;10.022;2023-05-03T01:12:55;145971.06;;;6.76;88.91
5780;BME280;2916;49.798;10.022;2023-05-03T01:15:41;145924.03;;;6.57;88.69
5780;BME280;2916;49.798;10.022;2023-05-03T01:18:15;145972.31;;;6.77;89.24
5780;BME280;2916;49.798;10.022;2023-05-03T01:20:48;145837.44;;;6.21;89.18
5780;BME280;2916;49.798;10.022;2023-05-03T01:23:28;145985.88;;;6.82;89.39
5780;BME280;2916;49.798;10.022;2023-05-03T01:26:14;145963.63;;;6.73;89.55
5780;BME280;2916;49.798;10.022;2023-05-03T01:28:42;146013.13;;;6.94;88.75
5780;BME280;2916;49.798;10.022;2023-05-03T01:31:10;146013.13;;;6.94;89.47
5780;BME280;2916;49.798;10.022;2023-05-03T01:33:44;146018.09;;;6.96;88.83
5780;BME280;2916;49.798;10.022;2023-05-03T01:36:22;146030.47;;;7.01;89.17
5780;BME280;2916;49.798;10.022;2023-05-03T01:38:49;146011.88;;;6.93;88.50
5780;BME280;2916;49.798;10.022;2023-05-03T01:41:20;146050.25;;;7.09;88.13
5780;BME280;2916;49.798;10.022;2023-05-03T01:43:50;145961.16;;;6.72;87.55
5780;BME280;2916;49.798;10.022;2023-05-03T01:46:19;146040.38;;;7.05;87.53
5780;BME280;2916;49.798;10.022;2023-05-03T01:48:46;146062.63;;;7.14;87.34
5780;BME280;2916;49.798;10.022;2023-05-03T01:51:14;146065.09;;;7.15;86.96
5780;BME280;2916;49.798;10.022;2023-05-03T01:53:41;146057.69;;;7.12;87.13
5780;BME280;2916;49.798;10.022;2023-05-03T01:56:08;146042.81;;;7.06;86.72
5780;BME280;2916;49.798;10.022;2023-05-03T01:58:37;146057.69;;;7.12;86.32
5780;BME280;2916;49.798;10.022;2023-05-03T02:01:04;146005.69;;;6.91;86.34
5780;BME280;2916;49.798;10.022;2023-05-03T02:03:33;145901.75;;;6.48;86.43
5780;BME280;2916;49.798;10.022;2023-05-03T02:06:00;146052.72;;;7.10;86.17
5780;BME280;2916;49.798;10.022;2023-05-03T02:08:27;146067.59;;;7.16;85.33
5780;BME280;2916;49.798;10.022;2023-05-03T02:10:54;146067.59;;;7.16;86.02
5780;BME280;2916;49.798;10.022;2023-05-03T02:13:21;146058.94;;;7.12;85.36
5780;BME280;2916;49.798;10.022;2023-05-03T02:15:50;146049.03;;;7.08;85.21
5780;BME280;2916;49.798;10.022;2023-05-03T02:18:17;146067.59;;;7.16;85.64
5780;BME280;2916;49.798;10.022;2023-05-03T02:20:45;146072.53;;;7.18;84.75
5780;BME280;2916;49.798;10.022;2023-05-03T02:23:13;146070.06;;;7.17;84.44
5780;BME280;2916;49.798;10.022;2023-05-03T02:25:40;146097.31;;;7.28;84.86
5780;BME280;2916;49.798;10.022;2023-05-03T02:28:07;146087.41;;;7.24;84.67
5780;BME280;2916;49.798;10.022;2023-05-03T02:30:34;146003.22;;;6.89;83.90
5780;BME280;2916;49.798;10.022;2023-05-03T02:33:03;146092.34;;;7.26;84.15
5780;BME280;2916;49.798;10.022;2023-05-03T02:35:30;146087.41;;;7.24;84.21
5780;BME280;2916;49.798;10.022;2023-05-03T02:37:58;146104.75;;;7.31;83.71
5780;BME280;2916;49.798;10.022;2023-05-03T02:40:25;146112.13;;;7.34;83.85
5780;BME280;2916;49.798;10.022;2023-05-03T02:42:53;146092.34;;;7.26;83.63
5780;BME280;2916;49.798;10.022;2023-05-03T02:45:20;146055.19;;;7.11;83.47
5780;BME280;2916;49.798;10.022;2023-05-03T02:47:47;146057.69;;;7.12;83.77
5780;BME280;2916;49.798;10.022;2023-05-03T02:50:16;146087.41;;;7.24;83.98
5780;BME280;2916;49.798;10.022;2023-05-03T02:52:43;146102.22;;;7.30;83.90
5780;BME280;2916;49.798;10.022;2023-05-03T02:55:11;146092.34;;;7.26;83.63
5780;BME280;2916;49.798;10.022;2023-05-03T02:57:38;146050.25;;;7.09;83.82
5780;BME280;2916;49.798;10.022;2023-05-03T03:00:07;146104.75;;;7.31;83.87
5780;BME280;2916;49.798;10.022;2023-05-03T03:02:36;146105.97;;;7.32;84.00
5780;BME280;2916;49.798;10.022;2023-05-03T03:05:03;146076.28;;;7.20;83.34
5780;BME280;2916;49.798;10.022;2023-05-03T03:07:32;146076.28;;;7.20;83.22
5780;BME280;2916;49.798;10.022;2023-05-03T03:09:59;146099.78;;;7.29;82.81
5780;BME280;2916;49.798;10.022;2023-05-03T03:12:27;146099.78;;;7.29;82.49
5780;BME280;2916;49.798;10.022;2023-05-03T03:14:54;146097.31;;;7.28;82.68
5780;BME280;2916;49.798;10.022;2023-05-03T03:17:22;146112.13;;;7.34;81.69
5780;BME280;2916;49.798;10.022;2023-05-03T03:19:49;146099.78;;;7.29;82.08
5780;BME280;2916;49.798;10.022;2023-05-03T03:22:16;146057.69;;;7.12;82.14
5780;BME280;2916;49.798;10.022;2023-05-03T03:24:45;146065.09;;;7.15;82.31
5780;BME280;2916;49.798;10.022;2023-05-03T03:27:12;146032.91;;;7.02;81.69
5780;BME280;2916;49.798;10.022;2023-05-03T03:29:39;146061.41;;;7.13;82.05
5780;BME280;2916;49.798;10.022;2023-05-03T03:32:06;146032.91;;;7.02;82.31
5780;BME280;2916;49.798;10.022;2023-05-03T03:34:33;146031.69;;;7.01;81.90
5780;BME280;2916;49.798;10.022;2023-05-03T03:37:02;146018.09;;;6.96;80.76
5780;BME280;2916;49.798;10.022;2023-05-03T03:39:30;146014.34;;;6.94;81.03
5780;BME280;2916;49.798;10.022;2023-05-03T03:41:59;146024.25;;;6.98;81.29
5780;BME280;2916;49.798;10.022;2023-05-03T03:44:27;146008.16;;;6.92;81.45
5780;BME280;2916;49.798;10.022;2023-05-03T03:46:54;145973.53;;;6.77;80.63
5780;BME280;2916;49.798;10.022;2023-05-03T03:49:22;145977.22;;;6.79;80.27
5780;BME280;2916;49.798;10.022;2023-05-03T03:51:49;145958.66;;;6.71;80.95
5780;BME280;2916;49.798;10.022;2023-05-03T03:54:16;145993.31;;;6.85;80.66
5780;BME280;2916;49.798;10.022;2023-05-03T03:56:43;145964.84;;;6.74;80.93
5780;BME280;2916;49.798;10.022;2023-05-03T03:59:12;145938.88;;;6.63;81.20
5780;BME280;2916;49.798;10.022;2023-05-03T04:01:39;145953.72;;;6.69;81.07
5780;BME280;2916;49.798;10.022;2023-05-03T04:04:06;145938.88;;;6.63;80.82
5780;BME280;2916;49.798;10.022;2023-05-03T04:06:33;145945.06;;;6.66;80.50
5780;BME280;2916;49.798;10.022;2023-05-03T04:09:00;145933.94;;;6.61;80.41
5780;BME280;2916;49.798;10.022;2023-05-03T04:11:27;145938.88;;;6.63;80.21
5780;BME280;2916;49.798;10.022;2023-05-03T04:13:55;145924.03;;;6.57;80.62
5780;BME280;2916;49.798;10.022;2023-05-03T04:16:23;145925.28;;;6.57;81.06
5780;BME280;2916;49.798;10.022;2023-05-03T04:18:50;145927.72;;;6.58;81.12
5780;BME280;2916;49.798;10.022;2023-05-03T04:21:17;145905.47;;;6.49;80.18
5780;BME280;2916;49.798;10.022;2023-05-03T04:23:45;145896.81;;;6.46;79.81
5780;BME280;2916;49.798;10.022;2023-05-03T04:26:12;145856.00;;;6.29;80.21
5780;BME280;2916;49.798;10.022;2023-05-03T04:28:40;145857.22;;;6.29;80.68
5780;BME280;2916;49.798;10.022;2023-05-03T04:31:07;145864.63;;;6.32;79.96
5780;BME280;2916;49.798;10.022;2023-05-03T04:33:36;145849.78;;;6.26;81.08
5780;BME280;2916;49.798;10.022;2023-05-03T04:36:03;145856.00;;;6.29;80.70
5780;BME280;2916;49.798;10.022;2023-05-03T04:38:31;145839.91;;;6.22;81.00
5780;BME280;2916;49.798;10.022;2023-05-03T04:40:58;145831.25;;;6.19;80.78
5780;BME280;2916;49.798;10.022;2023-05-03T04:43:25;145836.16;;;6.21;80.68
5780;BME280;2916;49.798;10.022;2023-05-03T04:45:53;145795.34;;;6.04;80.85
5780;BME280;2916;49.798;10.022;2023-05-03T04:48:20;145847.34;;;6.25;80.18
5780;BME280;2916;49.798;10.022;2023-05-03T04:50:48;145688.97;;;5.60;80.00
5780;BME280;2916;49.798;10.022;2023-05-03T04:53:17;145906.72;;;6.50;79.97
5780;BME280;2916;49.798;10.022;2023-05-03T04:55:44;145902.97;;;6.48;80.21
5780;BME280;2916;49.798;10.022;2023-05-03T04:58:12;146000.75;;;6.88;78.86
5780;BME280;2916;49.798;10.022;2023-05-03T05:00:41;146013.13;;;6.94;78.16
5780;BME280;2916;49.798;10.022;2023-05-03T05:03:08;146233.50;;;7.84;76.17
5780;BME280;2916;49.798;10.022;2023-05-03T05:05:35;146364.88;;;8.39;74.63
5780;BME280;2916;49.798;10.022;2023-05-03T05:08:04;146519.75;;;9.02;73.59
5780;BME280;2916;49.798;10.022;2023-05-03T05:10:36;146550.75;;;9.15;71.43
5780;BME280;2916;49.798;10.022;2023-05-03T05:13:03;146726.84;;;9.88;69.01
5780;BME280;2916;49.798;10.022;2023-05-03T05:15:30;146839.78;;;10.34;68.99
5780;BME280;2916;49.798;10.022;2023-05-03T05:17:58;146922.91;;;10.68;67.02
5780;BME280;2916;49.798;10.022;2023-05-03T05:20:25;147022.22;;;11.09;65.70
5780;BME280;2916;49.798;10.022;2023-05-03T05:22:52;147106.66;;;11.44;64.13
5780;BME280;2916;49.798;10.022;2023-05-03T05:25:21;147194.81;;;11.80;63.59
5780;BME280;2916;49.798;10.022;2023-05-03T05:27:48;147198.53;;;11.82;62.32
5780;BME280;2916;49.798;10.022;2023-05-03T05:30:15;147086.75;;;11.36;62.55
5780;BME280;2916;49.798;10.022;2023-05-03T05:32:43;146950.22;;;10.79;64.40
5780;BME280;2916;49.798;10.022;2023-05-03T05:35:10;146790.09;;;10.14;64.89
5780;BME280;2916;49.798;10.022;2023-05-03T05:37:37;146796.31;;;10.16;65.79
5780;BME280;2916;49.798;10.022;2023-05-03T05:40:06;146702.03;;;9.77;66.12
5780;BME280;2916;49.798;10.022;2023-05-03T05:42:35;146646.22;;;9.54;66.77
5780;BME280;2916;49.798;10.022;2023-05-03T05:45:03;146652.44;;;9.57;67.92
5780;BME280;2916;49.798;10.022;2023-05-03T05:47:32;146642.50;;;9.53;68.18
5780;BME280;2916;49.798;10.022;2023-05-03T05:49:59;146600.38;;;9.36;68.41
5780;BME280;2916;49.798;10.022;2023-05-03T05:52:27;146699.56;;;9.76;67.78
5780;BME280;2916;49.798;10.022;2023-05-03T05:54:54;146638.81;;;9.51;67.72
5780;BME280;2916;49.798;10.022;2023-05-03T05:57:21;146620.22;;;9.44;69.00
5780;BME280;2916;49.798;10.022;2023-05-03T05:59:50;146555.72;;;9.17;68.87
5780;BME280;2916;49.798;10.022;2023-05-03T06:02:17;146612.75;;;9.41;68.73
5780;BME280;2916;49.798;10.022;2023-05-03T06:04:49;146678.50;;;9.68;69.64
5780;BME280;2916;49.798;10.022;2023-05-03T06:07:16;146694.56;;;9.74;69.11
5780;BME280;2916;49.798;10.022;2023-05-03T06:09:43;146714.47;;;9.82;69.39
5780;BME280;2916;49.798;10.022;2023-05-03T06:12:11;146644.97;;;9.54;69.76
5780;BME280;2916;49.798;10.022;2023-05-03T06:14:38;146677.25;;;9.67;69.18
5780;BME280;2916;49.798;10.022;2023-05-03T06:17:06;146756.63;;;10.00;69.41
5780;BME280;2916;49.798;10.022;2023-05-03T06:19:34;146885.66;;;10.53;66.29
5780;BME280;2916;49.798;10.022;2023-05-03T06:22:01;146836.03;;;10.32;64.13
5780;BME280;2916;49.798;10.022;2023-05-03T06:24:29;147208.50;;;11.86;63.50
5780;BME280;2916;49.798;10.022;2023-05-03T06:26:57;147532.84;;;13.19;61.19
5780;BME280;2916;49.798;10.022;2023-05-03T06:29:25;147746.75;;;14.07;59.17
5780;BME280;2916;49.798;10.022;2023-05-03T06:31:53;147627.38;;;13.58;57.98
5780;BME280;2916;49.798;10.022;2023-05-03T06:34:22;147343.91;;;12.41;58.87
5780;BME280;2916;49.798;10.022;2023-05-03T06:36:49;147114.06;;;11.47;61.21
5780;BME280;2916;49.798;10.022;2023-05-03T06:39:17;146965.13;;;10.86;62.62
5780;BME280;2916;49.798;10.022;2023-05-03T06:41:44;147256.94;;;12.06;63.59
5780;BME280;2916;49.798;10.022;2023-05-03T06:44:11;147299.22;;;12.23;62.08
5780;BME280;2916;49.798;10.022;2023-05-03T06:46:38;147355.13;;;12.46;62.72
5780;BME280;2916;49.798;10.022;2023-05-03T06:49:06;147276.81;;;12.14;61.86
5780;BME280;2916;49.798;10.022;2023-05-03T06:51:36;147126.53;;;11.52;61.77
5780;BME280;2916;49.798;10.022;2023-05-03T06:54:03;147268.13;;;12.10;62.69
5780;BME280;2916;49.798;10.022;2023-05-03T06:56:34;147449.53;;;12.85;61.41
5780;BME280;2916;49.798;10.022;2023-05-03T06:59:02;147099.19;;;11.41;62.09
5780;BME280;2916;49.798;10.022;2023-05-03T07:01:30;146970.06;;;10.88;63.62
5780;BME280;2916;49.798;10.022;2023-05-03T07:03:58;147022.22;;;11.09;63.06
5780;BME280;2916;49.798;10.022;2023-05-03T07:06:26;147367.56;;;12.51;60.33
5780;BME280;2916;49.798;10.022;2023-05-03T07:08:54;147178.66;;;11.73;61.58
5780;BME280;2916;49.798;10.022;2023-05-03T07:11:22;147583.84;;;13.40;59.69
5780;BME280;2916;49.798;10.022;2023-05-03T07:13:49;147247.00;;;12.01;60.50
5780;BME280;2916;49.798;10.022;2023-05-03T07:16:17;147310.38;;;12.27;59.96
5780;BME280;2916;49.798;10.022;2023-05-03T07:18:44;147532.84;;;13.19;59.01
5780;BME280;2916;49.798;10.022;2023-05-03T07:21:12;147563.97;;;13.32;57.91
5780;BME280;2916;49.798;10.022;2023-05-03T07:23:40;147505.50;;;13.08;60.05
5780;BME280;2916;49.798;10.022;2023-05-03T07:26:09;148108.97;;;15.55;54.55
5780;BME280;2916;49.798;10.022;2023-05-03T07:28:36;147571.44;;;13.35;58.38
5780;BME280;2916;49.798;10.022;2023-05-03T07:31:04;148060.41;;;15.35;55.50
5780;BME280;2916;49.798;10.022;2023-05-03T07:33:33;148329.47;;;16.45;52.46
5780;BME280;2916;49.798;10.022;2023-05-03T07:36:02;147711.97;;;13.92;55.85
5780;BME280;2916;49.798;10.022;2023-05-03T07:38:30;147642.34;;;13.64;58.04
5780;BME280;2916;49.798;10.022;2023-05-03T07:40:58;148049.22;;;15.31;54.45
5780;BME280;2916;49.798;10.022;2023-05-03T07:43:27;147921.03;;;14.78;53.35
5780;BME280;2916;49.798;10.022;2023-05-03T07:45:54;148263.44;;;16.18;52.27
5780;BME280;2916;49.798;10.022;2023-05-03T07:48:21;148198.72;;;15.92;54.21
5780;BME280;2916;49.798;10.022;2023-05-03T07:50:48;148654.88;;;17.79;50.79
5780;BME280;2916;49.798;10.022;2023-05-03T07:53:16;148303.34;;;16.35;50.60
5780;BME280;2916;49.798;10.022;2023-05-03T07:55:43;148679.84;;;17.89;50.63
5780;BME280;2916;49.798;10.022;2023-05-03T07:58:10;148648.63;;;17.76;50.60
5780;BME280;2916;49.798;10.022;2023-05-03T08:00:39;148476.59;;;17.06;49.62
5780;BME280;2916;49.798;10.022;2023-05-03T08:03:07;148136.44;;;15.66;52.79
5780;BME280;2916;49.798;10.022;2023-05-03T08:05:34;148006.91;;;15.13;55.29
5780;BME280;2916;49.798;10.022;2023-05-03T08:08:02;148602.50;;;17.57;50.68
5780;BME280;2916;49.798;10.022;2023-05-03T08:10:30;148477.84;;;17.06;50.62
5780;BME280;2916;49.798;10.022;2023-05-03T08:13:03;148206.16;;;15.95;53.79
5780;BME280;2916;49.798;10.022;2023-05-03T08:15:31;148368.09;;;16.61;51.60
5780;BME280;2916;49.798;10.022;2023-05-03T08:17:59;148674.84;;;17.87;50.07
5780;BME280;2916;49.798;10.022;2023-05-03T08:20:27;148687.34;;;17.92;49.28
5780;BME280;2916;49.798;10.022;2023-05-03T08:22:54;148335.72;;;16.48;49.51
5780;BME280;2916;49.798;10.022;2023-05-03T08:25:22;148416.75;;;16.81;51.29
5780;BME280;2916;49.798;10.022;2023-05-03T08:27:50;148697.31;;;17.96;49.22
5780;BME280;2916;49.798;10.022;2023-05-03T08:30:19;148827.00;;;18.49;49.02
5780;BME280;2916;49.798;10.022;2023-05-03T08:32:47;149116.59;;;19.68;47.56
5780;BME280;2916;49.798;10.022;2023-05-03T08:35:15;148843.25;;;18.56;47.44
5780;BME280;2916;49.798;10.022;2023-05-03T08:37:43;149019.22;;;19.28;45.97
5780;BME280;2916;49.798;10.022;2023-05-03T08:40:11;149126.59;;;19.72;46.08
5780;BME280;2916;49.798;10.022;2023-05-03T08:42:41;149109.13;;;19.65;44.46
5780;BME280;2916;49.798;10.022;2023-05-03T08:45:11;148702.28;;;17.98;46.97
5780;BME280;2916;49.798;10.022;2023-05-03T08:47:39;148158.81;;;15.76;51.64
5780;BME280;2916;49.798;10.022;2023-05-03T08:50:10;148338.22;;;16.49;50.79
5780;BME280;2916;49.798;10.022;2023-05-03T08:52:41;148691.06;;;17.94;49.37
5780;BME280;2916;49.798;10.022;2023-05-03T08:55:10;148884.44;;;18.73;50.44
5780;BME280;2916;49.798;10.022;2023-05-03T08:57:37;148809.53;;;18.42;45.48
5780;BME280;2916;49.798;10.022;2023-05-03T09:00:06;148599.97;;;17.56;49.38
5780;BME280;2916;49.798;10.022;2023-05-03T09:02:36;148315.78;;;16.40;51.40
5780;BME280;2916;49.798;10.022;2023-05-03T09:05:32;148609.94;;;17.60;49.88
5780;BME280;2916;49.798;10.022;2023-05-03T09:08:03;148572.59;;;17.45;49.53
5780;BME280;2916;49.798;10.022;2023-05-03T09:10:31;148699.78;;;17.97;48.26
5780;BME280;2916;49.798;10.022;2023-05-03T09:13:00;148335.72;;;16.48;49.78
5780;BME280;2916;49.798;10.022;2023-05-03T09:15:28;148193.72;;;15.90;50.26
5780;BME280;2916;49.798;10.022;2023-05-03T09:18:07;148440.44;;;16.91;50.26
5780;BME280;2916;49.798;10.022;2023-05-03T09:20:37;148592.53;;;17.53;48.33
5780;BME280;2916;49.798;10.022;2023-05-03T09:23:08;148971.78;;;19.08;47.30
5780;BME280;2916;49.798;10.022;2023-05-03T09:25:46;148566.34;;;17.42;47.50
5780;BME280;2916;49.798;10.022;2023-05-03T09:28:15;148336.97;;;16.49;49.51
5780;BME280;2916;49.798;10.022;2023-05-03T09:30:43;148435.44;;;16.89;48.91
5780;BME280;2916;49.798;10.022;2023-05-03T09:33:11;148496.53;;;17.14;48.55
5780;BME280;2916;49.798;10.022;2023-05-03T09:35:56;148840.72;;;18.55;48.65
5780;BME280;2916;49.798;10.022;2023-05-03T09:38:29;148963.03;;;19.05;45.75
5780;BME280;2916;49.798;10.022;2023-05-03T09:40:57;149127.84;;;19.72;45.77
5780;BME280;2916;49.798;10.022;2023-05-03T09:43:26;148817.03;;;18.45;46.20
5780;BME280;2916;49.798;10.022;2023-05-03T09:46:07;148465.34;;;17.01;47.92
5780;BME280;2916;49.798;10.022;2023-05-03T09:48:35;148612.47;;;17.61;47.89
5780;BME280;2916;49.798;10.022;2023-05-03T09:51:04;148749.66;;;18.18;48.05
5780;BME280;2916;49.798;10.022;2023-05-03T09:53:34;148602.50;;;17.57;47.96
5780;BME280;2916;49.798;10.022;2023-05-03T09:56:04;148726.00;;;18.08;46.85
5780;BME280;2916;49.798;10.022;2023-05-03T09:58:35;148632.41;;;17.70;48.16
5780;BME280;2916;49.798;10.022;2023-05-03T10:01:02;148753.41;;;18.19;48.21
5780;BME280;2916;49.798;10.022;2023-05-03T10:03:38;148812.06;;;18.43;47.95
5780;BME280;2916;49.798;10.022;2023-05-03T10:06:14;148580.03;;;17.48;48.15
5780;BME280;2916;49.798;10.022;2023-05-03T10:08:52;148860.72;;;18.63;46.84
5780;BME280;2916;49.798;10.022;2023-05-03T10:11:25;148638.63;;;17.72;46.71
5780;BME280;2916;49.798;10.022;2023-05-03T10:13:53;148622.44;;;17.65;46.99
5780;BME280;2916;49.798;10.022;2023-05-03T10:16:29;148820.75;;;18.47;47.52
5780;BME280;2916;49.798;10.022;2023-05-03T10:19:07;149155.31;;;19.83;48.62
5780;BME280;2916;49.798;10.022;2023-05-03T10:22:01;148664.84;;;17.83;47.68
5780;BME280;2916;49.798;10.022;2023-05-03T10:24:31;148662.38;;;17.82;47.27
5780;BME280;2916;49.798;10.022;2023-05-03T10:26:59;149065.41;;;19.47;45.70
5780;BME280;2916;49.798;10.022;2023-05-03T10:29:44;149206.53;;;20.04;43.92
5780;BME280;2916;49.798;10.022;2023-05-03T10:32:32;148980.53;;;19.12;44.06
5780;BME280;2916;49.798;10.022;2023-05-03T10:35:02;149159.09;;;19.85;44.75
5780;BME280;2916;49.798;10.022;2023-05-03T10:37:32;148714.72;;;18.03;45.83
5780;BME280;2916;49.798;10.022;2023-05-03T10:40:11;148790.81;;;18.34;46.48
5780;BME280;2916;49.798;10.022;2023-05-03T10:42:42;148976.78;;;19.10;46.15
5780;BME280;2916;49.798;10.022;2023-05-03T10:45:21;148868.16;;;18.66;46.38
5780;BME280;2916;49.798;10.022;2023-05-03T10:48:16;148530.16;;;17.28;46.68
5780;BME280;2916;49.798;10.022;2023-05-03T10:50:48;148994.22;;;19.18;45.36
5780;BME280;2916;49.798;10.022;2023-05-03T10:53:37;148694.78;;;17.95;46.04
5780;BME280;2916;49.798;10.022;2023-05-03T10:56:08;148859.41;;;18.62;46.32
5780;BME280;2916;49.798;10.022;2023-05-03T10:58:41;149099.06;;;19.60;45.73
5780;BME280;2916;49.798;10.022;2023-05-03T11:01:09;149192.78;;;19.99;43.91
5780;BME280;2916;49.798;10.022;2023-05-03T11:03:47;149089.09;;;19.56;43.95
5780;BME280;2916;49.798;10.022;2023-05-03T11:06:32;149310.16;;;20.47;42.92
5780;BME280;2916;49.798;10.022;2023-05-03T11:09:00;149012.94;;;19.25;43.13
5780;BME280;2916;49.798;10.022;2023-05-03T11:11:30;148931.84;;;18.92;44.82
5780;BME280;2916;49.798;10.022;2023-05-03T11:13:58;148941.84;;;18.96;44.08
5780;BME280;2916;49.798;10.022;2023-05-03T11:16:25;149064.16;;;19.46;44.21
5780;BME280;2916;49.798;10.022;2023-05-03T11:18:53;149187.81;;;19.97;42.50
5780;BME280;2916;49.798;10.022;2023-05-03T11:21:22;149026.72;;;19.31;43.89
5780;BME280;2916;49.798;10.022;2023-05-03T11:23:49;148915.63;;;18.85;45.36
5780;BME280;2916;49.798;10.022;2023-05-03T11:26:16;149001.72;;;19.21;48.31
5780;BME280;2916;49.798;10.022;2023-05-03T11:28:49;149127.84;;;19.72;47.04
5780;BME280;2916;49.798;10.022;2023-05-03T11:31:17;148924.34;;;18.89;44.17
5780;BME280;2916;49.798;10.022;2023-05-03T11:33:44;149071.66;;;19.49;44.88
5780;BME280;2916;49.798;10.022;2023-05-03T11:36:11;149079.09;;;19.52;42.72
5780;BME280;2916;49.798;10.022;2023-05-03T11:38:39;149012.94;;;19.25;42.11
5780;BME280;2916;49.798;10.022;2023-05-03T11:41:16;148906.88;;;18.82;44.96
5780;BME280;2916;49.798;10.022;2023-05-03T11:43:45;149036.69;;;19.35;43.32
5780;BME280;2916;49.798;10.022;2023-05-03T11:46:18;148924.34;;;18.89;44.21
5780;BME280;2916;49.798;10.022;2023-05-03T11:48:46;148961.81;;;19.04;42.44
5780;BME280;2916;49.798;10.022;2023-05-03T11:51:13;149002.97;;;19.21;42.29
5780;BME280;2916;49.798;10.022;2023-05-03T11:53:42;148834.50;;;18.52;44.61
5780;BME280;2916;49.798;10.022;2023-05-03T11:56:13;148657.38;;;17.80;44.34
5780;BME280;2916;49.798;10.022;2023-05-03T11:58:51;148631.16;;;17.69;43.51
5780;BME280;2916;49.798;10.022;2023-05-03T12:01:26;148825.75;;;18.49;43.45
5780;BME280;2916;49.798;10.022;2023-05-03T12:03:56;148849.44;;;18.58;42.55
5780;BME280;2916;49.798;10.022;2023-05-03T12:06:24;148948.09;;;18.99;42.68
5780;BME280;2916;49.798;10.022;2023-05-03T12:08:52;148876.91;;;18.70;42.43
5780;BME280;2916;49.798;10.022;2023-05-03T12:11:19;148880.72;;;18.71;42.60
5780;BME280;2916;49.798;10.022;2023-05-03T12:13:56;148930.63;;;18.92;42.04
5780;BME280;2916;49.798;10.022;2023-05-03T12:16:26;149019.22;;;19.28;40.70
5780;BME280;2916;49.798;10.022;2023-05-03T12:18:56;148895.66;;;18.77;42.19
5780;BME280;2916;49.798;10.022;2023-05-03T12:21:44;148692.31;;;17.94;39.90
5780;BME280;2916;49.798;10.022;2023-05-03T12:24:12;148929.38;;;18.91;40.91
5780;BME280;2916;49.798;10.022;2023-05-03T12:26:42;148959.31;;;19.03;40.07
5780;BME280;2916;49.798;10.022;2023-05-03T12:29:10;148931.84;;;18.92;42.18
5780;BME280;2916;49.798;10.022;2023-05-03T12:31:38;148934.34;;;18.93;41.26
5780;BME280;2916;49.798;10.022;2023-05-03T12:34:06;148689.81;;;17.93;41.01
5780;BME280;2916;49.798;10.022;2023-05-03T12:36:37;148732.19;;;18.10;42.72
5780;BME280;2916;49.798;10.022;2023-05-03T12:39:04;148899.44;;;18.79;42.32
5780;BME280;2916;49.798;10.022;2023-05-03T12:41:32;148759.66;;;18.22;40.91
5780;BME280;2916;49.798;10.022;2023-05-03T12:44:00;148936.81;;;18.94;40.17
5780;BME280;2916;49.798;10.022;2023-05-03T12:46:27;148944.31;;;18.97;39.44
5780;BME280;2916;49.798;10.022;2023-05-03T12:48:56;148799.56;;;18.38;38.78
5780;BME280;2916;49.798;10.022;2023-05-03T12:51:23;148724.72;;;18.07;40.84
5780;BME280;2916;49.798;10.022;2023-05-03T12:53:52;148706.00;;;18.00;40.37
5780;BME280;2916;49.798;10.022;2023-05-03T12:56:19;149019.22;;;19.28;40.70
5780;BME280;2916;49.798;10.022;2023-05-03T12:58:47;149025.47;;;19.30;40.19
5780;BME280;2916;49.798;10.022;2023-05-03T13:01:14;149046.69;;;19.39;39.37
5780;BME280;2916;49.798;10.022;2023-05-03T13:03:44;149085.38;;;19.55;39.78
5780;BME280;2916;49.798;10.022;2023-05-03T13:06:13;148851.97;;;18.59;39.36
5780;BME280;2916;49.798;10.022;2023-05-03T13:08:40;148961.81;;;19.04;38.97
5780;BME280;2916;49.798;10.022;2023-05-03T13:11:07;149034.22;;;19.34;38.86
5780;BME280;2916;49.798;10.022;2023-05-03T13:13:35;149164.06;;;19.87;36.42
5780;BME280;2916;49.798;10.022;2023-05-03T13:16:02;149166.53;;;19.88;36.55